sensor_id;sensor_type;location;lat;lon;timestamp;pressure;altitude;pressure_sealevel;temperature;humidity
17054;BME280;8643;48.824;11.422;2023-02-23T00:02:19;96536.84;;;3.82;100.00
17054;BME280;8643;48.824;11.422;2023-02-23T00:04:47;96534.31;;;3.72;100.00
17054;BME280;8643;48.824;11.422;2023-02-23T00:07:16;96529.00;;;3.67;100.00
17054;BME280;8643;48.824;11.422;2023-02-23T00:09:47;96529.00;;;3.67;100.00
17054;BME280;8643;48.824;11.422;2023-02-23T00:12:16;96526.38;;;3.62;100.00
17054;BME280;8643;48.824;11.422;2023-02-23T00:14:47;96534.91;;;3.69;100.00
17054;BME280;8643;48.824;11.422;2023-02-23T00:17:15;96529.69;;;3.73;100.00
17054;BME280;8643;48.824;11.422;2023-02-23T00:19:47;96526.19;;;3.72;100.00
17054;BME280;8643;48.824;11.422;2023-02-23T00:22:16;96525.75;;;3.65;100.00
17054;BME280;8643;48.824;11.422;2023-02-23T00:24:44;96523.38;;;3.63;100.00
17054;BME280;8643;48.824;11.422;2023-02-23T00:27:14;96534.81;;;3.60;100.00
17054;BME280;8643;48.824;11.422;2023-02-23T00:29:46;96530.28;;;3.56;100.00
17054;BME280;8643;48.824;11.422;2023-02-23T00:32:17;96527.22;;;3.43;100.00
17054;BME280;8643;48.824;11.422;2023-02-23T00:34:47;96537.53;;;3.41;100.00
17054;BME280;8643;48.824;11.422;2023-02-23T00:37:17;96534.22;;;3.63;100.00
17054;BME280;8643;48.824;11.422;2023-02-23T00:39:47;96535.78;;;3.64;100.00
17054;BME280;8643;48.824;11.422;2023-02-23T00:42:16;96542.44;;;3.72;100.00
17054;BME280;8643;48.824;11.422;2023-02-23T00:44:44;96540.22;;;3.74;100.00
17054;BME280;8643;48.824;11.422;2023-02-23T00:47:15;96537.97;;;3.81;100.00
17054;BME280;8643;48.824;11.422;2023-02-23T00:49:43;96537.28;;;3.90;100.00
17054;BME280;8643;48.824;11.422;2023-02-23T00:52:13;96540.88;;;3.99;100.00
17054;BME280;8643;48.824;11.422;2023-02-23T00:54:42;96533.88;;;3.98;100.00
17054;BME280;8643;48.824;11.422;2023-02-23T00:57:10;96538.47;;;3.97;100.00
17054;BME280;8643;48.824;11.422;2023-02-23T00:59:38;96535.25;;;3.95;100.00
17054;BME280;8643;48.824;11.422;2023-02-23T01:02:08;96535.25;;;3.95;100.00
17054;BME280;8643;48.824;11.422;2023-02-23T01:04:36;96533.84;;;3.84;100.00
17054;BME280;8643;48.824;11.422;2023-02-23T01:07:05;96534.13;;;3.82;100.00
17054;BME280;8643;48.824;11.422;2023-02-23T01:09:38;96547.09;;;3.85;100.00
17054;BME280;8643;48.824;11.422;2023-02-23T01:12:07;96551.03;;;3.60;100.00
17054;BME280;8643;48.824;11.422;2023-02-23T01:14:36;96551.94;;;3.37;100.00
17054;BME280;8643;48.824;11.422;2023-02-23T01:17:05;96556.78;;;3.21;100.00
17054;BME280;8643;48.824;11.422;2023-02-23T01:19:35;96552.41;;;3.06;100.00
17054;BME280;8643;48.824;11.422;2023-02-23T01:22:04;96553.22;;;2.87;100.00
17054;BME280;8643;48.824;11.422;2023-02-23T01:24:33;96555.34;;;2.90;100.00
17054;BME280;8643;48.824;11.422;2023-02-23T01:27:06;96556.13;;;2.91;100.00
17054;BME280;8643;48.824;11.422;2023-02-23T01:29:35;96553.72;;;2.89;100.00
17054;BME280;8643;48.824;11.422;2023-02-23T01:32:04;96556.19;;;2.86;100.00
17054;BME280;8643;48.824;11.422;2023-02-23T01:34:32;96555.69;;;2.84;100.00
17054;BME280;8643;48.824;11.422;2023-02-23T01:37:02;96562.19;;;2.83;100.00
17054;BME280;8643;48.824;11.422;2023-02-23T01:39:31;96554.06;;;2.83;100.00
17054;BME280;8643;48.824;11.422;2023-02-23T01:42:02;96550.94;;;2.94;100.00
17054;BME280;8643;48.824;11.422;2023-02-23T01:45:23;96545.75;;;2.79;100.00
17054;BME280;8643;48.824;11.422;2023-02-23T01:47:58;96550.97;;;2.70;100.00
17054;BME280;8643;48.824;11.422;2023-02-23T01:50:36;96549.97;;;2.66;100.00
17054;BME280;8643;48.824;11.422;2023-02-23T01:53:06;96549.75;;;2.63;100.00
17054;BME280;8643;48.824;11.422;2023-02-23T01:55:34;96549.47;;;2.64;100.00
17054;BME280;8643;48.824;11.422;2023-02-23T01:58:09;96552.66;;;2.66;100.00
17054;BME280;8643;48.824;11.422;2023-02-23T02:00:48;96543.69;;;2.71;100.00
17054;BME280;8643;48.824;11.422;2023-02-23T02:03:26;96535.81;;;2.74;100.00
17054;BME280;8643;48.824;11.422;2023-02-23T02:05:56;96546.31;;;2.76;100.00
17054;BME280;8643;48.824;11.422;2023-02-23T02:08:27;96543.84;;;2.80;100.00
17054;BME280;8643;48.824;11.422;2023-02-23T02:10:58;96535.16;;;2.83;100.00
17054;BME280;8643;48.824;11.422;2023-02-23T02:13:34;96542.91;;;2.89;100.00
17054;BME280;8643;48.824;11.422;2023-02-23T02:16:50;96538.75;;;2.97;100.00
17054;BME280;8643;48.824;11.422;2023-02-23T02:26:40;96535.63;;;3.42;100.00
17054;BME280;8643;48.824;11.422;2023-02-23T02:36:23;96522.66;;;3.58;100.00
17054;BME280;8643;48.824;11.422;2023-02-23T02:39:10;96526.72;;;3.41;100.00
17054;BME280;8643;48.824;11.422;2023-02-23T02:42:00;96526.50;;;3.19;100.00
17054;BME280;8643;48.824;11.422;2023-02-23T02:44:41;96521.41;;;2.98;100.00
17054;BME280;8643;48.824;11.422;2023-02-23T02:47:22;96529.94;;;2.86;100.00
17054;BME280;8643;48.824;11.422;2023-02-23T02:50:01;96519.78;;;2.78;100.00
17054;BME280;8643;48.824;11.422;2023-02-23T02:52:38;96523.94;;;2.70;100.00
17054;BME280;8643;48.824;11.422;2023-02-23T02:55:16;96518.53;;;2.70;100.00
17054;BME280;8643;48.824;11.422;2023-02-23T02:57:46;96524.84;;;2.66;100.00
17054;BME280;8643;48.824;11.422;2023-02-23T03:00:27;96521.59;;;2.64;100.00
17054;BME280;8643;48.824;11.422;2023-02-23T03:03:28;96524.88;;;2.61;100.00
17054;BME280;8643;48.824;11.422;2023-02-23T03:06:18;96520.59;;;2.60;100.00
17054;BME280;8643;48.824;11.422;2023-02-23T03:09:20;96524.56;;;2.67;100.00
17054;BME280;8643;48.824;11.422;2023-02-23T03:12:26;96517.75;;;2.70;100.00
17054;BME280;8643;48.824;11.422;2023-02-23T03:15:31;96520.66;;;2.73;100.00
17054;BME280;8643;48.824;11.422;2023-02-23T03:18:46;96525.94;;;2.84;100.00
17054;BME280;8643;48.824;11.422;2023-02-23T03:21:47;96523.81;;;2.81;100.00
17054;BME280;8643;48.824;11.422;2023-02-23T03:24:40;96525.69;;;2.80;100.00
17054;BME280;8643;48.824;11.422;2023-02-23T03:27:43;96528.88;;;2.87;100.00
17054;BME280;8643;48.824;11.422;2023-02-23T03:30:44;96531.72;;;2.96;100.00
17054;BME280;8643;48.824;11.422;2023-02-23T03:33:42;96531.63;;;3.01;100.00
17054;BME280;8643;48.824;11.422;2023-02-23T03:36:35;96531.22;;;2.94;100.00
17054;BME280;8643;48.824;11.422;2023-02-23T03:39:31;96534.56;;;2.86;100.00
17054;BME280;8643;48.824;11.422;2023-02-23T03:42:32;96530.03;;;2.81;100.00
17054;BME280;8643;48.824;11.422;2023-02-23T03:45:25;96528.69;;;2.79;100.00
17054;BME280;8643;48.824;11.422;2023-02-23T03:48:18;96536.00;;;2.78;100.00
17054;BME280;8643;48.824;11.422;2023-02-23T03:51:11;96536.09;;;2.73;100.00
17054;BME280;8643;48.824;11.422;2023-02-23T03:54:04;96529.88;;;2.72;100.00
17054;BME280;8643;48.824;11.422;2023-02-23T03:56:54;96538.22;;;2.76;100.00
17054;BME280;8643;48.824;11.422;2023-02-23T03:59:49;96536.59;;;2.75;100.00
17054;BME280;8643;48.824;11.422;2023-02-23T04:02:44;96540.06;;;2.81;100.00
17054;BME280;8643;48.824;11.422;2023-02-23T04:05:34;96533.53;;;2.82;100.00
17054;BME280;8643;48.824;11.422;2023-02-23T04:08:29;96526.75;;;2.84;100.00
17054;BME280;8643;48.824;11.422;2023-02-23T04:11:24;96531.00;;;2.90;100.00
17054;BME280;8643;48.824;11.422;2023-02-23T04:14:19;96538.75;;;2.97;100.00
17054;BME280;8643;48.824;11.422;2023-02-23T04:16:51;96533.78;;;2.85;100.00
17054;BME280;8643;48.824;11.422;2023-02-23T04:19:20;96533.53;;;2.82;100.00
17054;BME280;8643;48.824;11.422;2023-02-23T04:21:48;96529.03;;;2.77;100.00
17054;BME280;8643;48.824;11.422;2023-02-23T04:24:16;96539.31;;;2.75;100.00
17054;BME280;8643;48.824;11.422;2023-02-23T04:26:45;96542.94;;;2.65;100.00
17054;BME280;8643;48.824;11.422;2023-02-23T04:29:14;96546.00;;;2.59;100.00
17054;BME280;8643;48.824;11.422;2023-02-23T04:31:42;96549.91;;;2.47;100.00
17054;BME280;8643;48.824;11.422;2023-02-23T04:34:11;96552.06;;;2.50;100.00
17054;BME280;8643;48.824;11.422;2023-02-23T04:36:41;96562.06;;;2.50;100.00
17054;BME280;8643;48.824;11.422;2023-02-23T04:39:09;96561.03;;;2.46;100.00
17054;BME280;8643;48.824;11.422;2023-02-23T04:41:38;96560.50;;;2.44;100.00
17054;BME280;8643;48.824;11.422;2023-02-23T04:44:06;96561.03;;;2.46;100.00
17054;BME280;8643;48.824;11.422;2023-02-23T04:46:35;96558.03;;;2.47;100.00
17054;BME280;8643;48.824;11.422;2023-02-23T04:49:03;96568.03;;;2.47;100.00
17054;BME280;8643;48.824;11.422;2023-02-23T04:51:31;96564.00;;;2.44;100.00
17054;BME280;8643;48.824;11.422;2023-02-23T04:54:05;96561.03;;;2.46;100.00
17054;BME280;8643;48.824;11.422;2023-02-23T04:56:34;96563.22;;;2.44;100.00
17054;BME280;8643;48.824;11.422;2023-02-23T04:59:06;96565.91;;;2.44;100.00
17054;BME280;8643;48.824;11.422;2023-02-23T05:01:35;96570.25;;;2.45;100.00
17054;BME280;8643;48.824;11.422;2023-02-23T05:04:04;96561.84;;;2.46;100.00
17054;BME280;8643;48.824;11.422;2023-02-23T05:06:32;96555.50;;;2.56;100.00
17054;BME280;8643;48.824;11.422;2023-02-23T05:09:03;96562.97;;;2.64;100.00
17054;BME280;8643;48.824;11.422;2023-02-23T05:11:32;96560.78;;;2.66;100.00
17054;BME280;8643;48.824;11.422;2023-02-23T05:14:01;96556.09;;;2.72;100.00
17054;BME280;8643;48.824;11.422;2023-02-23T05:16:29;96556.09;;;2.72;100.00
17054;BME280;8643;48.824;11.422;2023-02-23T05:18:58;96563.69;;;2.70;100.00
17054;BME280;8643;48.824;11.422;2023-02-23T05:21:26;96559.72;;;2.62;100.00
17054;BME280;8643;48.824;11.422;2023-02-23T05:23:55;96553.38;;;2.53;100.00
17054;BME280;8643;48.824;11.422;2023-02-23T05:26:25;96556.88;;;2.53;100.00
17054;BME280;8643;48.824;11.422;2023-02-23T05:28:54;96564.69;;;2.55;100.00
17054;BME280;8643;48.824;11.422;2023-02-23T05:31:23;96556.09;;;2.53;100.00
17054;BME280;8643;48.824;11.422;2023-02-23T05:33:52;96562.06;;;2.50;100.00
17054;BME280;8643;48.824;11.422;2023-02-23T05:36:21;96569.06;;;2.51;100.00
17054;BME280;8643;48.824;11.422;2023-02-23T05:38:50;96569.06;;;2.51;100.00
17054;BME280;8643;48.824;11.422;2023-02-23T05:41:21;96569.19;;;2.41;100.00
17054;BME280;8643;48.824;11.422;2023-02-23T05:43:53;96574.59;;;2.41;100.00
17054;BME280;8643;48.824;11.422;2023-02-23T05:46:24;96572.41;;;2.43;100.00
17054;BME280;8643;48.824;11.422;2023-02-23T05:48:56;96572.59;;;2.51;100.00
17054;BME280;8643;48.824;11.422;2023-02-23T05:51:28;96567.13;;;2.56;100.00
17054;BME280;8643;48.824;11.422;2023-02-23T05:53:57;96577.06;;;2.61;100.00
17054;BME280;8643;48.824;11.422;2023-02-23T05:56:27;96579.13;;;2.69;100.00
17054;BME280;8643;48.824;11.422;2023-02-23T05:58:58;96585.47;;;2.79;100.00
17054;BME280;8643;48.824;11.422;2023-02-23T06:01:30;96573.44;;;2.90;100.00
17054;BME280;8643;48.824;11.422;2023-02-23T06:03:58;96574.19;;;2.96;100.00
17054;BME280;8643;48.824;11.422;2023-02-23T06:06:27;96570.53;;;3.05;100.00
17054;BME280;8643;48.824;11.422;2023-02-23T06:08:55;96575.38;;;3.08;100.00
17054;BME280;8643;48.824;11.422;2023-02-23T06:11:24;96577.72;;;3.15;100.00
17054;BME280;8643;48.824;11.422;2023-02-23T06:13:53;96579.53;;;3.20;100.00
17054;BME280;8643;48.824;11.422;2023-02-23T06:16:23;96580.47;;;3.29;100.00
17054;BME280;8643;48.824;11.422;2023-02-23T06:18:52;96579.81;;;3.37;100.00
17054;BME280;8643;48.824;11.422;2023-02-23T06:21:20;96584.06;;;3.43;100.00
17054;BME280;8643;48.824;11.422;2023-02-23T06:23:48;96582.66;;;3.46;100.00
17054;BME280;8643;48.824;11.422;2023-02-23T06:26:17;96590.41;;;3.53;100.00
17054;BME280;8643;48.824;11.422;2023-02-23T06:28:46;96592.75;;;3.59;100.00
17054;BME280;8643;48.824;11.422;2023-02-23T06:31:15;96593.34;;;3.56;100.00
17054;BME280;8643;48.824;11.422;2023-02-23T06:33:45;96593.34;;;3.56;100.00
17054;BME280;8643;48.824;11.422;2023-02-23T06:36:15;96595.44;;;3.59;100.00
17054;BME280;8643;48.824;11.422;2023-02-23T06:38:44;96597.88;;;3.61;100.00
17054;BME280;8643;48.824;11.422;2023-02-23T06:41:12;96595.38;;;3.64;100.00
17054;BME280;8643;48.824;11.422;2023-02-23T06:43:42;96602.09;;;3.67;100.00
17054;BME280;8643;48.824;11.422;2023-02-23T06:46:11;96600.78;;;3.64;100.00
17054;BME280;8643;48.824;11.422;2023-02-23T06:48:40;96602.03;;;3.72;100.00
17054;BME280;8643;48.824;11.422;2023-02-23T06:51:10;96610.34;;;3.76;100.00
17054;BME280;8643;48.824;11.422;2023-02-23T06:53:38;96599.63;;;3.84;100.00
17054;BME280;8643;48.824;11.422;2023-02-23T06:56:07;96600.88;;;3.92;100.00
17054;BME280;8643;48.824;11.422;2023-02-23T06:58:38;96615.06;;;4.03;100.00
17054;BME280;8643;48.824;11.422;2023-02-23T07:01:06;96610.13;;;4.05;100.00
17054;BME280;8643;48.824;11.422;2023-02-23T07:03:35;96606.03;;;4.08;100.00
17054;BME280;8643;48.824;11.422;2023-02-23T07:06:04;96606.94;;;4.17;100.00
17054;BME280;8643;48.824;11.422;2023-02-23T07:08:34;96618.22;;;4.24;100.00
17054;BME280;8643;48.824;11.422;2023-02-23T07:11:07;96628.38;;;4.32;100.00
17054;BME280;8643;48.824;11.422;2023-02-23T07:13:40;96615.66;;;4.47;100.00
17054;BME280;8643;48.824;11.422;2023-02-23T07:16:10;96620.25;;;4.60;100.00
17054;BME280;8643;48.824;11.422;2023-02-23T07:18:41;96620.06;;;4.70;100.00
17054;BME280;8643;48.824;11.422;2023-02-23T07:21:09;96626.09;;;4.81;100.00
17054;BME280;8643;48.824;11.422;2023-02-23T07:23:39;96625.88;;;4.91;100.00
17054;BME280;8643;48.824;11.422;2023-02-23T07:26:07;96632.22;;;5.01;100.00
17054;BME280;8643;48.824;11.422;2023-02-23T07:28:36;96628.28;;;5.07;100.00
17054;BME280;8643;48.824;11.422;2023-02-23T07:31:06;96631.69;;;5.12;100.00
17054;BME280;8643;48.824;11.422;2023-02-23T07:33:35;96630.56;;;5.27;100.00
17054;BME280;8643;48.824;11.422;2023-02-23T07:36:04;96628.03;;;5.31;100.00
17054;BME280;8643;48.824;11.422;2023-02-23T07:38:32;96635.97;;;5.27;100.00
17054;BME280;8643;48.824;11.422;2023-02-23T07:41:02;96631.16;;;5.38;100.00
17054;BME280;8643;48.824;11.422;2023-02-23T07:43:31;96624.41;;;5.36;100.00
17054;BME280;8643;48.824;11.422;2023-02-23T07:46:01;96628.72;;;5.37;100.00
17054;BME280;8643;48.824;11.422;2023-02-23T07:48:29;96632.31;;;5.46;100.00
17054;BME280;8643;48.824;11.422;2023-02-23T07:51:01;96630.00;;;5.53;100.00
17054;BME280;8643;48.824;11.422;2023-02-23T07:53:36;96630.88;;;5.62;100.00
17054;BME280;8643;48.824;11.422;2023-02-23T07:56:07;96632.75;;;5.76;100.00
17054;BME280;8643;48.824;11.422;2023-02-23T07:58:38;96637.03;;;5.77;100.00
17054;BME280;8643;48.824;11.422;2023-02-23T08:01:07;96637.69;;;5.96;100.00
17054;BME280;8643;48.824;11.422;2023-02-23T08:03:36;96644.19;;;6.09;100.00
17054;BME280;8643;48.824;11.422;2023-02-23T08:06:05;96638.38;;;6.24;100.00
17054;BME280;8643;48.824;11.422;2023-02-23T08:08:34;96633.59;;;6.30;100.00
17054;BME280;8643;48.824;11.422;2023-02-23T08:11:07;96638.66;;;6.46;100.00
17054;BME280;8643;48.824;11.422;2023-02-23T08:13:36;96640.03;;;6.34;100.00
17054;BME280;8643;48.824;11.422;2023-02-23T08:16:06;96644.44;;;6.53;100.00
17054;BME280;8643;48.824;11.422;2023-02-23T08:18:34;96642.25;;;6.64;100.00
17054;BME280;8643;48.824;11.422;2023-02-23T08:21:03;96649.34;;;6.73;100.00
17054;BME280;8643;48.824;11.422;2023-02-23T08:23:33;96649.50;;;6.77;100.00
17054;BME280;8643;48.824;11.422;2023-02-23T08:26:02;96647.63;;;6.86;100.00
17054;BME280;8643;48.824;11.422;2023-02-23T08:28:32;96645.16;;;7.07;100.00
17054;BME280;8643;48.824;11.422;2023-02-23T08:31:00;96644.72;;;7.40;100.00
17054;BME280;8643;48.824;11.422;2023-02-23T08:33:29;96650.81;;;7.37;100.00
17054;BME280;8643;48.824;11.422;2023-02-23T08:36:02;96642.47;;;7.51;100.00
17054;BME280;8643;48.824;11.422;2023-02-23T08:38:31;96641.22;;;7.48;100.00
17054;BME280;8643;48.824;11.422;2023-02-23T08:40:59;96646.66;;;7.57;100.00
17054;BME280;8643;48.824;11.422;2023-02-23T08:43:29;96647.63;;;7.52;100.00
17054;BME280;8643;48.824;11.422;2023-02-23T08:45:59;96647.47;;;7.66;100.00
17054;BME280;8643;48.824;11.422;2023-02-23T08:48:27;96643.63;;;7.50;100.00
17054;BME280;8643;48.824;11.422;2023-02-23T08:50:57;96646.78;;;7.34;100.00
17054;BME280;8643;48.824;11.422;2023-02-23T08:53:26;96640.25;;;7.44;100.00
17054;BME280;8643;48.824;11.422;2023-02-23T08:55:57;96647.63;;;7.44;100.00
17054;BME280;8643;48.824;11.422;2023-02-23T08:58:27;96639.13;;;7.54;100.00
17054;BME280;8643;48.824;11.422;2023-02-23T09:00:59;96646.84;;;7.69;100.00
17054;BME280;8643;48.824;11.422;2023-02-23T09:03:32;96647.00;;;7.91;100.00
17054;BME280;8643;48.824;11.422;2023-02-23T09:06:10;96644.28;;;7.99;100.00
17054;BME280;8643;48.824;11.422;2023-02-23T09:08:38;96645.72;;;8.05;100.00
17054;BME280;8643;48.824;11.422;2023-02-23T09:11:07;96647.34;;;7.89;100.00
17054;BME280;8643;48.824;11.422;2023-02-23T09:13:35;96639.59;;;8.17;100.00
17054;BME280;8643;48.824;11.422;2023-02-23T09:16:07;96642.13;;;8.40;100.00
17054;BME280;8643;48.824;11.422;2023-02-23T09:18:37;96648.44;;;8.23;100.00
17054;BME280;8643;48.824;11.422;2023-02-23T09:21:13;96641.16;;;8.36;100.00
17054;BME280;8643;48.824;11.422;2023-02-23T09:23:45;96638.09;;;8.55;100.00
17054;BME280;8643;48.824;11.422;2023-02-23T09:26:15;96640.91;;;8.76;100.00
17054;BME280;8643;48.824;11.422;2023-02-23T09:28:45;96643.84;;;8.71;100.00
17054;BME280;8643;48.824;11.422;2023-02-23T09:31:17;96643.78;;;8.88;100.00
17054;BME280;8643;48.824;11.422;2023-02-23T09:33:46;96645.47;;;9.02;100.00
17054;BME280;8643;48.824;11.422;2023-02-23T09:36:18;96639.91;;;9.19;100.00
17054;BME280;8643;48.824;11.422;2023-02-23T09:38:50;96641.91;;;9.10;100.00
17054;BME280;8643;48.824;11.422;2023-02-23T09:41:49;96635.47;;;9.06;100.00
17054;BME280;8643;48.824;11.422;2023-02-23T09:44:36;96643.66;;;9.06;100.00
17054;BME280;8643;48.824;11.422;2023-02-23T09:47:24;96642.47;;;9.24;100.00
17054;BME280;8643;48.824;11.422;2023-02-23T09:49:58;96649.84;;;9.24;100.00
17054;BME280;8643;48.824;11.422;2023-02-23T09:52:42;96645.28;;;9.36;100.00
17054;BME280;8643;48.824;11.422;2023-02-23T09:55:13;96647.34;;;9.10;100.00
17054;BME280;8643;48.824;11.422;2023-02-23T09:57:47;96650.41;;;9.38;100.00
17054;BME280;8643;48.824;11.422;2023-02-23T10:00:21;96650.66;;;9.24;100.00
17054;BME280;8643;48.824;11.422;2023-02-23T10:03:18;96653.28;;;9.12;100.00
17054;BME280;8643;48.824;11.422;2023-02-23T10:05:58;96649.00;;;9.32;100.00
17054;BME280;8643;48.824;11.422;2023-02-23T10:08:47;96646.94;;;9.50;100.00
17054;BME280;8643;48.824;11.422;2023-02-23T10:11:26;96649.41;;;9.43;100.00
17054;BME280;8643;48.824;11.422;2023-02-23T10:14:19;96650.22;;;9.64;100.00
17054;BME280;8643;48.824;11.422;2023-02-23T10:17:08;96649.69;;;10.13;100.00
17054;BME280;8643;48.824;11.422;2023-02-23T10:19:49;96653.41;;;10.75;100.00
17054;BME280;8643;48.824;11.422;2023-02-23T10:22:21;96655.31;;;11.08;100.00
17054;BME280;8643;48.824;11.422;2023-02-23T10:24:55;96653.91;;;11.51;100.00
17054;BME280;8643;48.824;11.422;2023-02-23T10:27:35;96652.78;;;11.52;100.00
17054;BME280;8643;48.824;11.422;2023-02-23T10:30:17;96658.56;;;11.63;100.00
17054;BME280;8643;48.824;11.422;2023-02-23T10:32:53;96652.94;;;11.97;100.00
17054;BME280;8643;48.824;11.422;2023-02-23T10:35:28;96658.25;;;12.62;100.00
17054;BME280;8643;48.824;11.422;2023-02-23T10:38:00;96651.78;;;12.54;100.00
17054;BME280;8643;48.824;11.422;2023-02-23T10:40:32;96653.03;;;12.00;100.00
17054;BME280;8643;48.824;11.422;2023-02-23T10:43:05;96652.28;;;11.75;100.00
17054;BME280;8643;48.824;11.422;2023-02-23T10:45:40;96655.59;;;11.68;100.00
17054;BME280;8643;48.824;11.422;2023-02-23T10:48:17;96648.03;;;11.78;100.00
17054;BME280;8643;48.824;11.422;2023-02-23T10:50:53;96650.56;;;11.70;100.00
17054;BME280;8643;48.824;11.422;2023-02-23T10:53:30;96648.25;;;11.85;100.00
17054;BME280;8643;48.824;11.422;2023-02-23T10:56:06;96650.25;;;11.23;100.00
17054;BME280;8643;48.824;11.422;2023-02-23T10:58:43;96646.59;;;11.06;100.00
17054;BME280;8643;48.824;11.422;2023-02-23T11:01:13;96651.13;;;10.65;100.00
17054;BME280;8643;48.824;11.422;2023-02-23T11:03:46;96641.56;;;10.83;100.00
17054;BME280;8643;48.824;11.422;2023-02-23T11:06:31;96641.13;;;10.81;100.00
17054;BME280;8643;48.824;11.422;2023-02-23T11:09:22;96645.34;;;10.33;100.00
17054;BME280;8643;48.824;11.422;2023-02-23T11:12:18;96632.63;;;10.62;100.00
17054;BME280;8643;48.824;11.422;2023-02-23T11:14:53;96633.94;;;11.01;100.00
17054;BME280;8643;48.824;11.422;2023-02-23T11:17:30;96634.41;;;11.16;100.00
17054;BME280;8643;48.824;11.422;2023-02-23T11:20:13;96634.47;;;10.70;100.00
17054;BME280;8643;48.824;11.422;2023-02-23T11:22:48;96622.03;;;10.60;100.00
17054;BME280;8643;48.824;11.422;2023-02-23T11:25:27;96632.63;;;10.62;100.00
17054;BME280;8643;48.824;11.422;2023-02-23T11:27:57;96635.94;;;10.55;100.00
17054;BME280;8643;48.824;11.422;2023-02-23T11:30:34;96627.63;;;10.31;100.00
17054;BME280;8643;48.824;11.422;2023-02-23T11:33:06;96625.22;;;9.96;100.00
17054;BME280;8643;48.824;11.422;2023-02-23T11:35:37;96633.78;;;9.73;100.00
17054;BME280;8643;48.824;11.422;2023-02-23T11:38:22;96622.97;;;9.56;100.00
17054;BME280;8643;48.824;11.422;2023-02-23T11:41:00;96620.31;;;9.47;100.00
17054;BME280;8643;48.824;11.422;2023-02-23T11:43:29;96626.75;;;9.42;100.00
17054;BME280;8643;48.824;11.422;2023-02-23T11:46:03;96625.03;;;9.38;100.00
17054;BME280;8643;48.824;11.422;2023-02-23T11:48:36;96625.22;;;9.32;100.00
17054;BME280;8643;48.824;11.422;2023-02-23T11:51:09;96626.06;;;9.24;100.00
17054;BME280;8643;48.824;11.422;2023-02-23T11:53:44;96619.00;;;9.23;100.00
17054;BME280;8643;48.824;11.422;2023-02-23T11:56:20;96615.97;;;9.46;100.00
17054;BME280;8643;48.824;11.422;2023-02-23T11:58:52;96618.41;;;9.39;100.00
17054;BME280;8643;48.824;11.422;2023-02-23T12:01:34;96612.59;;;9.19;100.00
17054;BME280;8643;48.824;11.422;2023-02-23T12:04:06;96614.53;;;9.18;100.00
17054;BME280;8643;48.824;11.422;2023-02-23T12:06:39;96613.97;;;9.55;100.00
17054;BME280;8643;48.824;11.422;2023-02-23T12:09:19;96613.03;;;9.51;100.00
17054;BME280;8643;48.824;11.422;2023-02-23T12:11:59;96609.31;;;9.77;100.00
17054;BME280;8643;48.824;11.422;2023-02-23T12:14:37;96606.56;;;9.77;100.00
17054;BME280;8643;48.824;11.422;2023-02-23T12:17:14;96597.81;;;9.83;100.00
17054;BME280;8643;48.824;11.422;2023-02-23T12:19:48;96601.88;;;9.77;100.00
17054;BME280;8643;48.824;11.422;2023-02-23T12:22:26;96602.19;;;9.97;100.00
17054;BME280;8643;48.824;11.422;2023-02-23T12:25:04;96598.69;;;9.96;100.00
17054;BME280;8643;48.824;11.422;2023-02-23T12:27:43;96601.28;;;9.93;100.00
17054;BME280;8643;48.824;11.422;2023-02-23T12:30:19;96597.53;;;9.97;100.00
17054;BME280;8643;48.824;11.422;2023-02-23T12:32:55;96599.66;;;10.13;100.00
17054;BME280;8643;48.824;11.422;2023-02-23T12:35:34;96593.22;;;10.08;100.00
17054;BME280;8643;48.824;11.422;2023-02-23T12:38:16;96593.50;;;10.16;100.00
17054;BME280;8643;48.824;11.422;2023-02-23T12:40:48;96585.06;;;10.54;100.00
17054;BME280;8643;48.824;11.422;2023-02-23T12:43:26;96581.22;;;10.68;100.00
17054;BME280;8643;48.824;11.422;2023-02-23T12:46:08;96588.75;;;10.71;100.00
17054;BME280;8643;48.824;11.422;2023-02-23T12:48:49;96594.09;;;10.67;100.00
17054;BME280;8643;48.824;11.422;2023-02-23T12:51:28;96591.13;;;11.22;100.00
17054;BME280;8643;48.824;11.422;2023-02-23T12:54:03;96580.53;;;12.45;100.00
17054;BME280;8643;48.824;11.422;2023-02-23T12:56:54;96576.31;;;12.96;100.00
17054;BME280;8643;48.824;11.422;2023-02-23T13:00:21;96573.22;;;13.33;100.00
17054;BME280;8643;48.824;11.422;2023-02-23T13:03:44;96578.56;;;13.10;100.00
17054;BME280;8643;48.824;11.422;2023-02-23T13:06:27;96573.59;;;12.20;100.00
17054;BME280;8643;48.824;11.422;2023-02-23T13:09:19;96571.97;;;11.62;100.00
17054;BME280;8643;48.824;11.422;2023-02-23T13:12:17;96573.53;;;11.35;100.00
17054;BME280;8643;48.824;11.422;2023-02-23T13:14:57;96576.06;;;11.15;100.00
17054;BME280;8643;48.824;11.422;2023-02-23T13:17:37;96572.94;;;11.29;100.00
17054;BME280;8643;48.824;11.422;2023-02-23T13:20:18;96563.25;;;11.32;100.00
17054;BME280;8643;48.824;11.422;2023-02-23T13:22:57;96556.16;;;11.31;100.00
17054;BME280;8643;48.824;11.422;2023-02-23T13:25:36;96559.84;;;11.10;100.00
17054;BME280;8643;48.824;11.422;2023-02-23T13:28:18;96558.00;;;11.14;100.00
17054;BME280;8643;48.824;11.422;2023-02-23T13:30:48;96558.03;;;11.02;100.00
17054;BME280;8643;48.824;11.422;2023-02-23T13:33:26;96556.97;;;11.19;100.00
17054;BME280;8643;48.824;11.422;2023-02-23T13:36:10;96558.84;;;11.55;100.00
17054;BME280;8643;48.824;11.422;2023-02-23T13:39:05;96558.63;;;11.48;100.00
17054;BME280;8643;48.824;11.422;2023-02-23T13:41:54;96554.72;;;11.09;100.00
17054;BME280;8643;48.824;11.422;2023-02-23T13:44:32;96551.19;;;11.08;100.00
17054;BME280;8643;48.824;11.422;2023-02-23T13:47:15;96549.72;;;10.98;100.00
17054;BME280;8643;48.824;11.422;2023-02-23T13:49:57;96555.31;;;10.77;100.00
17054;BME280;8643;48.824;11.422;2023-02-23T13:52:32;96554.84;;;10.63;100.00
17054;BME280;8643;48.824;11.422;2023-02-23T13:55:42;96553.25;;;10.50;100.00
17054;BME280;8643;48.824;11.422;2023-02-23T13:58:21;96558.47;;;10.67;100.00